sensor_id;sensor_type;location;lat;lon;timestamp;P1;durP1;ratioP1;P2;durP2;ratioP2
9783;SDS011;4931;44.874;-1.092;2023-06-26T00:02:12;10.57;;;5.57;;
9783;SDS011;4931;44.874;-1.092;2023-06-26T00:04:37;13.57;;;5.70;;
9783;SDS011;4931;44.874;-1.092;2023-06-26T00:07:03;12.48;;;5.35;;
9783;SDS011;4931;44.874;-1.092;2023-06-26T00:09:29;15.77;;;5.82;;
9783;SDS011;4931;44.874;-1.092;2023-06-26T00:11:55;16.83;;;5.75;;
9783;SDS011;4931;44.874;-1.092;2023-06-26T00:14:20;15.70;;;6.20;;
9783;SDS011;4931;44.874;-1.092;2023-06-26T00:16:46;11.00;;;5.60;;
9783;SDS011;4931;44.874;-1.092;2023-06-26T00:19:14;10.55;;;5.50;;
9783;SDS011;4931;44.874;-1.092;2023-06-26T00:21:40;12.60;;;5.40;;
9783;SDS011;4931;44.874;-1.092;2023-06-26T00:24:06;12.90;;;6.22;;
9783;SDS011;4931;44.874;-1.092;2023-06-26T00:26:31;13.07;;;5.65;;
9783;SDS011;4931;44.874;-1.092;2023-06-26T00:28:57;12.50;;;5.80;;
9783;SDS011;4931;44.874;-1.092;2023-06-26T00:31:22;16.70;;;6.38;;
9783;SDS011;4931;44.874;-1.092;2023-06-26T00:33:48;11.98;;;6.07;;
9783;SDS011;4931;44.874;-1.092;2023-06-26T00:36:13;14.63;;;6.47;;
9783;SDS011;4931;44.874;-1.092;2023-06-26T00:38:39;11.25;;;5.68;;
9783;SDS011;4931;44.874;-1.092;2023-06-26T00:41:05;13.13;;;6.60;;
9783;SDS011;4931;44.874;-1.092;2023-06-26T00:43:37;16.65;;;6.70;;
9783;SDS011;4931;44.874;-1.092;2023-06-26T00:46:03;16.60;;;6.70;;
9783;SDS011;4931;44.874;-1.092;2023-06-26T00:48:28;14.55;;;6.85;;
9783;SDS011;4931;44.874;-1.092;2023-06-26T00:50:54;15.10;;;6.10;;
9783;SDS011;4931;44.874;-1.092;2023-06-26T00:53:20;15.65;;;6.40;;
9783;SDS011;4931;44.874;-1.092;2023-06-26T00:55:46;13.85;;;6.35;;
9783;SDS011;4931;44.874;-1.092;2023-06-26T00:58:12;13.27;;;6.90;;
9783;SDS011;4931;44.874;-1.092;2023-06-26T01:00:38;15.52;;;6.80;;
9783;SDS011;4931;44.874;-1.092;2023-06-26T01:03:03;14.60;;;7.20;;
9783;SDS011;4931;44.874;-1.092;2023-06-26T01:05:29;13.52;;;7.18;;
9783;SDS011;4931;44.874;-1.092;2023-06-26T01:07:56;13.77;;;7.10;;
9783;SDS011;4931;44.874;-1.092;2023-06-26T01:10:23;11.32;;;6.78;;
9783;SDS011;4931;44.874;-1.092;2023-06-26T01:12:49;17.08;;;7.35;;
9783;SDS011;4931;44.874;-1.092;2023-06-26T01:15:15;12.30;;;6.72;;
9783;SDS011;4931;44.874;-1.092;2023-06-26T01:17:40;12.55;;;6.60;;
9783;SDS011;4931;44.874;-1.092;2023-06-26T01:20:10;15.90;;;7.18;;
9783;SDS011;4931;44.874;-1.092;2023-06-26T01:27:57;12.52;;;6.70;;
9783;SDS011;4931;44.874;-1.092;2023-06-26T01:30:24;14.07;;;7.18;;
9783;SDS011;4931;44.874;-1.092;2023-06-26T01:32:50;14.05;;;7.00;;
9783;SDS011;4931;44.874;-1.092;2023-06-26T01:35:16;12.20;;;6.95;;
9783;SDS011;4931;44.874;-1.092;2023-06-26T01:37:42;16.33;;;6.88;;
9783;SDS011;4931;44.874;-1.092;2023-06-26T01:40:08;11.07;;;6.78;;
9783;SDS011;4931;44.874;-1.092;2023-06-26T01:42:34;11.80;;;6.72;;
9783;SDS011;4931;44.874;-1.092;2023-06-26T01:45:13;14.02;;;7.13;;
9783;SDS011;4931;44.874;-1.092;2023-06-26T01:47:44;13.77;;;6.93;;
9783;SDS011;4931;44.874;-1.092;2023-06-26T01:50:19;13.75;;;7.00;;
9783;SDS011;4931;44.874;-1.092;2023-06-26T01:52:53;11.45;;;6.82;;
9783;SDS011;4931;44.874;-1.092;2023-06-26T01:55:32;12.52;;;7.20;;
9783;SDS011;4931;44.874;-1.092;2023-06-26T01:58:05;11.32;;;6.43;;
9783;SDS011;4931;44.874;-1.092;2023-06-26T02:00:31;10.27;;;6.72;;
9783;SDS011;4931;44.874;-1.092;2023-06-26T02:02:58;12.40;;;6.72;;
9783;SDS011;4931;44.874;-1.092;2023-06-26T02:05:24;11.50;;;6.68;;
9783;SDS011;4931;44.874;-1.092;2023-06-26T02:07:49;13.60;;;7.05;;
9783;SDS011;4931;44.874;-1.092;2023-06-26T02:10:16;16.83;;;7.85;;
9783;SDS011;4931;44.874;-1.092;2023-06-26T02:12:42;11.65;;;7.65;;
9783;SDS011;4931;44.874;-1.092;2023-06-26T02:15:07;12.25;;;8.10;;
9783;SDS011;4931;44.874;-1.092;2023-06-26T02:17:33;12.25;;;7.20;;
9783;SDS011;4931;44.874;-1.092;2023-06-26T02:19:59;10.48;;;7.13;;
9783;SDS011;4931;44.874;-1.092;2023-06-26T02:22:25;10.68;;;7.03;;
9783;SDS011;4931;44.874;-1.092;2023-06-26T02:24:50;10.80;;;7.32;;
9783;SDS011;4931;44.874;-1.092;2023-06-26T02:27:16;14.25;;;7.22;;
9783;SDS011;4931;44.874;-1.092;2023-06-26T02:29:41;15.15;;;6.82;;
9783;SDS011;4931;44.874;-1.092;2023-06-26T02:32:07;11.77;;;7.05;;
9783;SDS011;4931;44.874;-1.092;2023-06-26T02:34:33;10.98;;;6.60;;
9783;SDS011;4931;44.874;-1.092;2023-06-26T02:36:59;12.40;;;7.35;;
9783;SDS011;4931;44.874;-1.092;2023-06-26T02:39:25;10.45;;;7.05;;
9783;SDS011;4931;44.874;-1.092;2023-06-26T02:41:51;11.00;;;7.07;;
9783;SDS011;4931;44.874;-1.092;2023-06-26T02:44:17;12.80;;;7.43;;
9783;SDS011;4931;44.874;-1.092;2023-06-26T02:46:43;14.05;;;7.18;;
9783;SDS011;4931;44.874;-1.092;2023-06-26T02:49:09;13.15;;;7.05;;
9783;SDS011;4931;44.874;-1.092;2023-06-26T02:51:34;12.45;;;7.30;;
9783;SDS011;4931;44.874;-1.092;2023-06-26T02:54:00;11.18;;;7.22;;
9783;SDS011;4931;44.874;-1.092;2023-06-26T02:56:26;12.43;;;7.13;;
9783;SDS011;4931;44.874;-1.092;2023-06-26T02:58:57;15.15;;;8.07;;
9783;SDS011;4931;44.874;-1.092;2023-06-26T03:01:23;14.07;;;7.63;;
9783;SDS011;4931;44.874;-1.092;2023-06-26T03:03:48;12.88;;;7.95;;
9783;SDS011;4931;44.874;-1.092;2023-06-26T03:06:14;12.25;;;7.45;;
9783;SDS011;4931;44.874;-1.092;2023-06-26T03:08:40;14.40;;;7.78;;
9783;SDS011;4931;44.874;-1.092;2023-06-26T03:11:06;14.50;;;9.23;;
9783;SDS011;4931;44.874;-1.092;2023-06-26T03:13:32;12.60;;;7.43;;
9783;SDS011;4931;44.874;-1.092;2023-06-26T03:15:58;11.25;;;6.82;;
9783;SDS011;4931;44.874;-1.092;2023-06-26T03:18:24;11.95;;;6.78;;
9783;SDS011;4931;44.874;-1.092;2023-06-26T03:20:49;10.70;;;7.53;;
9783;SDS011;4931;44.874;-1.092;2023-06-26T03:23:15;13.18;;;7.28;;
9783;SDS011;4931;44.874;-1.092;2023-06-26T03:25:40;13.38;;;7.35;;
9783;SDS011;4931;44.874;-1.092;2023-06-26T03:28:06;11.02;;;6.90;;
9783;SDS011;4931;44.874;-1.092;2023-06-26T03:30:31;11.10;;;7.05;;
9783;SDS011;4931;44.874;-1.092;2023-06-26T03:32:57;9.95;;;6.97;;
9783;SDS011;4931;44.874;-1.092;2023-06-26T03:35:22;13.35;;;7.40;;
9783;SDS011;4931;44.874;-1.092;2023-06-26T03:37:48;13.50;;;7.50;;
9783;SDS011;4931;44.874;-1.092;2023-06-26T03:40:14;12.48;;;7.40;;
9783;SDS011;4931;44.874;-1.092;2023-06-26T03:42:40;14.63;;;7.22;;
9783;SDS011;4931;44.874;-1.092;2023-06-26T03:45:05;13.27;;;7.43;;
9783;SDS011;4931;44.874;-1.092;2023-06-26T03:47:31;11.75;;;6.90;;
9783;SDS011;4931;44.874;-1.092;2023-06-26T03:49:56;12.55;;;7.40;;
9783;SDS011;4931;44.874;-1.092;2023-06-26T03:52:22;13.52;;;7.72;;
9783;SDS011;4931;44.874;-1.092;2023-06-26T03:54:48;14.90;;;7.53;;
9783;SDS011;4931;44.874;-1.092;2023-06-26T03:57:14;13.23;;;7.70;;
9783;SDS011;4931;44.874;-1.092;2023-06-26T03:59:39;10.68;;;7.03;;
9783;SDS011;4931;44.874;-1.092;2023-06-26T04:02:05;10.27;;;7.00;;
9783;SDS011;4931;44.874;-1.092;2023-06-26T04:04:30;14.82;;;7.40;;
9783;SDS011;4931;44.874;-1.092;2023-06-26T04:06:56;10.85;;;7.35;;
9783;SDS011;4931;44.874;-1.092;2023-06-26T04:09:24;16.30;;;7.70;;
9783;SDS011;4931;44.874;-1.092;2023-06-26T04:11:50;14.45;;;6.95;;
9783;SDS011;4931;44.874;-1.092;2023-06-26T04:14:15;13.88;;;7.40;;
9783;SDS011;4931;44.874;-1.092;2023-06-26T04:16:41;13.68;;;6.60;;
9783;SDS011;4931;44.874;-1.092;2023-06-26T04:19:07;11.25;;;7.18;;
9783;SDS011;4931;44.874;-1.092;2023-06-26T04:21:33;12.70;;;7.20;;
9783;SDS011;4931;44.874;-1.092;2023-06-26T04:23:58;13.15;;;7.68;;
9783;SDS011;4931;44.874;-1.092;2023-06-26T04:26:23;12.48;;;7.65;;
9783;SDS011;4931;44.874;-1.092;2023-06-26T04:28:53;17.42;;;8.07;;
9783;SDS011;4931;44.874;-1.092;2023-06-26T04:31:18;17.58;;;7.93;;
9783;SDS011;4931;44.874;-1.092;2023-06-26T04:33:44;15.43;;;7.60;;
9783;SDS011;4931;44.874;-1.092;2023-06-26T04:36:09;16.20;;;7.72;;
9783;SDS011;4931;44.874;-1.092;2023-06-26T04:38:36;16.00;;;8.60;;
9783;SDS011;4931;44.874;-1.092;2023-06-26T04:41:02;13.93;;;7.80;;
9783;SDS011;4931;44.874;-1.092;2023-06-26T04:43:27;16.13;;;7.93;;
9783;SDS011;4931;44.874;-1.092;2023-06-26T04:45:53;15.00;;;7.20;;
9783;SDS011;4931;44.874;-1.092;2023-06-26T04:48:19;15.50;;;7.45;;
9783;SDS011;4931;44.874;-1.092;2023-06-26T04:50:45;14.55;;;6.45;;
9783;SDS011;4931;44.874;-1.092;2023-06-26T04:53:18;13.23;;;6.93;;
9783;SDS011;4931;44.874;-1.092;2023-06-26T04:55:44;14.77;;;6.68;;
9783;SDS011;4931;44.874;-1.092;2023-06-26T04:58:10;12.60;;;7.05;;
9783;SDS011;4931;44.874;-1.092;2023-06-26T05:00:35;12.38;;;6.63;;
9783;SDS011;4931;44.874;-1.092;2023-06-26T05:03:01;15.40;;;7.82;;
9783;SDS011;4931;44.874;-1.092;2023-06-26T05:05:27;13.60;;;7.68;;
9783;SDS011;4931;44.874;-1.092;2023-06-26T05:07:56;16.27;;;8.82;;
9783;SDS011;4931;44.874;-1.092;2023-06-26T05:10:22;16.30;;;8.25;;
9783;SDS011;4931;44.874;-1.092;2023-06-26T05:12:48;13.13;;;7.63;;
9783;SDS011;4931;44.874;-1.092;2023-06-26T05:15:13;16.67;;;8.02;;
9783;SDS011;4931;44.874;-1.092;2023-06-26T05:17:39;14.90;;;8.10;;
9783;SDS011;4931;44.874;-1.092;2023-06-26T05:20:04;15.90;;;8.00;;
9783;SDS011;4931;44.874;-1.092;2023-06-26T05:22:31;14.02;;;8.02;;
9783;SDS011;4931;44.874;-1.092;2023-06-26T05:24:58;16.92;;;8.82;;
9783;SDS011;4931;44.874;-1.092;2023-06-26T05:27:26;17.08;;;8.20;;
9783;SDS011;4931;44.874;-1.092;2023-06-26T05:29:51;13.77;;;8.55;;
9783;SDS011;4931;44.874;-1.092;2023-06-26T05:32:17;17.48;;;8.50;;
9783;SDS011;4931;44.874;-1.092;2023-06-26T05:34:45;18.65;;;8.88;;
9783;SDS011;4931;44.874;-1.092;2023-06-26T05:37:14;21.17;;;9.43;;
9783;SDS011;4931;44.874;-1.092;2023-06-26T05:39:43;16.30;;;9.20;;
9783;SDS011;4931;44.874;-1.092;2023-06-26T05:42:09;21.25;;;9.50;;
9783;SDS011;4931;44.874;-1.092;2023-06-26T05:44:35;22.20;;;8.75;;
9783;SDS011;4931;44.874;-1.092;2023-06-26T05:47:00;22.92;;;8.73;;
9783;SDS011;4931;44.874;-1.092;2023-06-26T05:49:26;22.83;;;8.05;;
9783;SDS011;4931;44.874;-1.092;2023-06-26T05:51:51;15.27;;;7.38;;
9783;SDS011;4931;44.874;-1.092;2023-06-26T05:54:17;23.13;;;8.15;;
9783;SDS011;4931;44.874;-1.092;2023-06-26T05:56:43;19.45;;;7.28;;
9783;SDS011;4931;44.874;-1.092;2023-06-26T05:59:08;18.73;;;6.80;;
9783;SDS011;4931;44.874;-1.092;2023-06-26T06:01:36;17.20;;;6.50;;
9783;SDS011;4931;44.874;-1.092;2023-06-26T06:04:01;16.30;;;6.30;;
9783;SDS011;4931;44.874;-1.092;2023-06-26T06:06:27;17.33;;;6.05;;
9783;SDS011;4931;44.874;-1.092;2023-06-26T06:08:52;16.35;;;6.35;;
9783;SDS011;4931;44.874;-1.092;2023-06-26T06:11:18;22.80;;;6.57;;
9783;SDS011;4931;44.874;-1.092;2023-06-26T06:13:43;18.25;;;6.40;;
9783;SDS011;4931;44.874;-1.092;2023-06-26T06:16:09;17.48;;;5.30;;
9783;SDS011;4931;44.874;-1.092;2023-06-26T06:18:34;22.92;;;5.60;;
9783;SDS011;4931;44.874;-1.092;2023-06-26T06:21:00;18.80;;;5.35;;
9783;SDS011;4931;44.874;-1.092;2023-06-26T06:23:25;16.25;;;4.95;;
9783;SDS011;4931;44.874;-1.092;2023-06-26T06:25:52;19.55;;;5.60;;
9783;SDS011;4931;44.874;-1.092;2023-06-26T06:28:17;18.55;;;4.82;;
9783;SDS011;4931;44.874;-1.092;2023-06-26T06:30:43;20.13;;;5.10;;
9783;SDS011;4931;44.874;-1.092;2023-06-26T06:33:08;19.52;;;5.07;;
9783;SDS011;4931;44.874;-1.092;2023-06-26T06:35:34;23.25;;;5.20;;
9783;SDS011;4931;44.874;-1.092;2023-06-26T06:37:59;13.40;;;4.07;;
9783;SDS011;4931;44.874;-1.092;2023-06-26T06:40:25;16.92;;;4.15;;
9783;SDS011;4931;44.874;-1.092;2023-06-26T06:42:50;12.98;;;3.92;;
9783;SDS011;4931;44.874;-1.092;2023-06-26T06:45:16;16.92;;;4.13;;
9783;SDS011;4931;44.874;-1.092;2023-06-26T06:47:41;14.27;;;3.50;;
9783;SDS011;4931;44.874;-1.092;2023-06-26T06:50:07;10.95;;;3.05;;
9783;SDS011;4931;44.874;-1.092;2023-06-26T06:52:36;13.50;;;3.20;;
9783;SDS011;4931;44.874;-1.092;2023-06-26T06:55:03;12.35;;;3.35;;
9783;SDS011;4931;44.874;-1.092;2023-06-26T06:57:32;12.00;;;2.72;;
9783;SDS011;4931;44.874;-1.092;2023-06-26T07:00:10;12.35;;;3.00;;
9783;SDS011;4931;44.874;-1.092;2023-06-26T07:02:37;14.65;;;3.42;;
9783;SDS011;4931;44.874;-1.092;2023-06-26T07:05:04;9.35;;;2.70;;
9783;SDS011;4931;44.874;-1.092;2023-06-26T07:07:31;13.90;;;3.30;;
9783;SDS011;4931;44.874;-1.092;2023-06-26T07:09:59;16.45;;;3.17;;
9783;SDS011;4931;44.874;-1.092;2023-06-26T07:12:25;13.02;;;3.10;;
9783;SDS011;4931;44.874;-1.092;2023-06-26T07:14:51;11.70;;;2.65;;
9783;SDS011;4931;44.874;-1.092;2023-06-26T07:17:16;12.50;;;2.70;;
9783;SDS011;4931;44.874;-1.092;2023-06-26T07:19:42;13.52;;;2.40;;
9783;SDS011;4931;44.874;-1.092;2023-06-26T07:22:07;17.77;;;3.40;;
9783;SDS011;4931;44.874;-1.092;2023-06-26T07:24:33;19.45;;;2.70;;
9783;SDS011;4931;44.874;-1.092;2023-06-26T07:26:59;7.57;;;2.10;;
9783;SDS011;4931;44.874;-1.092;2023-06-26T07:29:25;10.40;;;2.20;;
9783;SDS011;4931;44.874;-1.092;2023-06-26T07:31:51;15.25;;;2.53;;
9783;SDS011;4931;44.874;-1.092;2023-06-26T07:34:16;11.50;;;2.10;;
9783;SDS011;4931;44.874;-1.092;2023-06-26T07:36:42;21.10;;;3.05;;
9783;SDS011;4931;44.874;-1.092;2023-06-26T07:39:07;11.02;;;2.10;;
9783;SDS011;4931;44.874;-1.092;2023-06-26T07:41:33;12.05;;;2.10;;
9783;SDS011;4931;44.874;-1.092;2023-06-26T07:43:58;10.02;;;2.38;;
9783;SDS011;4931;44.874;-1.092;2023-06-26T07:46:24;8.70;;;2.15;;
9783;SDS011;4931;44.874;-1.092;2023-06-26T07:48:50;10.77;;;1.80;;
9783;SDS011;4931;44.874;-1.092;2023-06-26T07:51:15;9.50;;;1.65;;
9783;SDS011;4931;44.874;-1.092;2023-06-26T07:53:41;9.13;;;1.77;;
9783;SDS011;4931;44.874;-1.092;2023-06-26T07:56:06;9.52;;;1.90;;
9783;SDS011;4931;44.874;-1.092;2023-06-26T07:58:31;8.40;;;1.70;;
9783;SDS011;4931;44.874;-1.092;2023-06-26T08:00:57;9.93;;;1.98;;
9783;SDS011;4931;44.874;-1.092;2023-06-26T08:03:22;12.38;;;1.95;;
9783;SDS011;4931;44.874;-1.092;2023-06-26T08:05:48;9.18;;;2.20;;
9783;SDS011;4931;44.874;-1.092;2023-06-26T08:08:14;9.93;;;1.67;;
9783;SDS011;4931;44.874;-1.092;2023-06-26T08:10:40;10.88;;;1.88;;
9783;SDS011;4931;44.874;-1.092;2023-06-26T08:13:05;8.93;;;1.90;;
9783;SDS011;4931;44.874;-1.092;2023-06-26T08:15:31;11.30;;;1.90;;
9783;SDS011;4931;44.874;-1.092;2023-06-26T08:17:56;11.35;;;2.42;;
9783;SDS011;4931;44.874;-1.092;2023-06-26T08:20:22;11.23;;;2.10;;
9783;SDS011;4931;44.874;-1.092;2023-06-26T08:22:47;10.02;;;2.22;;
9783;SDS011;4931;44.874;-1.092;2023-06-26T08:25:15;14.70;;;1.85;;
9783;SDS011;4931;44.874;-1.092;2023-06-26T08:27:41;7.15;;;1.52;;
9783;SDS011;4931;44.874;-1.092;2023-06-26T08:30:07;12.23;;;2.10;;
9783;SDS011;4931;44.874;-1.092;2023-06-26T08:32:32;9.13;;;1.80;;
9783;SDS011;4931;44.874;-1.092;2023-06-26T08:34:58;4.90;;;1.30;;
9783;SDS011;4931;44.874;-1.092;2023-06-26T08:37:24;9.75;;;1.60;;
9783;SDS011;4931;44.874;-1.092;2023-06-26T08:39:49;8.55;;;2.08;;
9783;SDS011;4931;44.874;-1.092;2023-06-26T08:42:14;8.88;;;1.50;;
9783;SDS011;4931;44.874;-1.092;2023-06-26T08:44:40;8.02;;;1.73;;
9783;SDS011;4931;44.874;-1.092;2023-06-26T08:47:06;6.22;;;1.20;;
9783;SDS011;4931;44.874;-1.092;2023-06-26T08:52:24;4.70;;;1.10;;
9783;SDS011;4931;44.874;-1.092;2023-06-26T08:54:57;7.60;;;1.67;;
9783;SDS011;4931;44.874;-1.092;2023-06-26T08:57:23;7.90;;;1.17;;
9783;SDS011;4931;44.874;-1.092;2023-06-26T08:59:51;7.22;;;1.27;;
9783;SDS011;4931;44.874;-1.092;2023-06-26T09:02:17;3.78;;;1.08;;
9783;SDS011;4931;44.874;-1.092;2023-06-26T09:04:43;3.88;;;1.10;;
9783;SDS011;4931;44.874;-1.092;2023-06-26T09:07:08;4.00;;;1.17;;
9783;SDS011;4931;44.874;-1.092;2023-06-26T09:09:34;6.40;;;1.23;;
9783;SDS011;4931;44.874;-1.092;2023-06-26T09:12:03;4.93;;;1.15;;
9783;SDS011;4931;44.874;-1.092;2023-06-26T09:14:29;5.50;;;0.88;;
9783;SDS011;4931;44.874;-1.092;2023-06-26T09:16:55;5.47;;;1.40;;
9783;SDS011;4931;44.874;-1.092;2023-06-26T09:19:20;4.32;;;1.73;;
9783;SDS011;4931;44.874;-1.092;2023-06-26T09:21:48;3.60;;;1.52;;
9783;SDS011;4931;44.874;-1.092;2023-06-26T09:24:15;4.93;;;1.27;;
9783;SDS011;4931;44.874;-1.092;2023-06-26T09:26:41;5.15;;;1.55;;
9783;SDS011;4931;44.874;-1.092;2023-06-26T09:29:08;4.15;;;0.98;;
9783;SDS011;4931;44.874;-1.092;2023-06-26T09:31:35;6.05;;;1.45;;
9783;SDS011;4931;44.874;-1.092;2023-06-26T09:34:02;4.93;;;1.10;;
9783;SDS011;4931;44.874;-1.092;2023-06-26T09:36:29;7.00;;;1.42;;
9783;SDS011;4931;44.874;-1.092;2023-06-26T09:39:01;4.80;;;1.47;;
9783;SDS011;4931;44.874;-1.092;2023-06-26T09:41:29;4.60;;;1.40;;
9783;SDS011;4931;44.874;-1.092;2023-06-26T09:43:57;6.80;;;1.35;;
9783;SDS011;4931;44.874;-1.092;2023-06-26T09:46:26;5.68;;;1.30;;
9783;SDS011;4931;44.874;-1.092;2023-06-26T09:49:03;3.58;;;1.30;;
9783;SDS011;4931;44.874;-1.092;2023-06-26T09:51:30;5.03;;;1.70;;
9783;SDS011;4931;44.874;-1.092;2023-06-26T09:53:57;8.15;;;1.50;;
9783;SDS011;4931;44.874;-1.092;2023-06-26T09:56:27;4.95;;;1.67;;
9783;SDS011;4931;44.874;-1.092;2023-06-26T09:58:55;3.88;;;1.40;;
9783;SDS011;4931;44.874;-1.092;2023-06-26T10:01:25;5.53;;;1.55;;
9783;SDS011;4931;44.874;-1.092;2023-06-26T10:03:50;6.85;;;1.85;;
9783;SDS011;4931;44.874;-1.092;2023-06-26T10:06:18;5.93;;;1.65;;
9783;SDS011;4931;44.874;-1.092;2023-06-26T10:08:45;7.47;;;1.58;;
9783;SDS011;4931;44.874;-1.092;2023-06-26T10:11:12;5.40;;;1.80;;
9783;SDS011;4931;44.874;-1.092;2023-06-26T10:13:42;4.65;;;1.50;;
9783;SDS011;4931;44.874;-1.092;2023-06-26T10:16:11;5.07;;;1.80;;
9783;SDS011;4931;44.874;-1.092;2023-06-26T10:18:41;5.60;;;1.92;;
9783;SDS011;4931;44.874;-1.092;2023-06-26T10:21:08;6.72;;;2.00;;
9783;SDS011;4931;44.874;-1.092;2023-06-26T10:23:36;3.90;;;1.80;;
9783;SDS011;4931;44.874;-1.092;2023-06-26T10:26:05;5.07;;;1.95;;
9783;SDS011;4931;44.874;-1.092;2023-06-26T10:28:33;6.00;;;2.00;;
9783;SDS011;4931;44.874;-1.092;2023-06-26T10:31:00;5.10;;;2.17;;
9783;SDS011;4931;44.874;-1.092;2023-06-26T10:33:27;5.53;;;2.28;;
9783;SDS011;4931;44.874;-1.092;2023-06-26T10:35:54;6.50;;;2.50;;
9783;SDS011;4931;44.874;-1.092;2023-06-26T10:38:51;7.18;;;3.65;;
9783;SDS011;4931;44.874;-1.092;2023-06-26T10:41:37;5.18;;;2.90;;
9783;SDS011;4931;44.874;-1.092;2023-06-26T10:44:10;6.00;;;3.10;;
9783;SDS011;4931;44.874;-1.092;2023-06-26T10:46:49;6.40;;;3.30;;
9783;SDS011;4931;44.874;-1.092;2023-06-26T10:49:18;6.32;;;3.28;;
9783;SDS011;4931;44.874;-1.092;2023-06-26T10:51:49;6.78;;;3.30;;
9783;SDS011;4931;44.874;-1.092;2023-06-26T10:54:18;7.87;;;3.53;;
9783;SDS011;4931;44.874;-1.092;2023-06-26T10:56:45;6.40;;;4.47;;
9783;SDS011;4931;44.874;-1.092;2023-06-26T10:59:18;8.48;;;4.50;;
9783;SDS011;4931;44.874;-1.092;2023-06-26T11:01:46;11.20;;;4.88;;
9783;SDS011;4931;44.874;-1.092;2023-06-26T11:04:35;7.25;;;4.15;;
9783;SDS011;4931;44.874;-1.092;2023-06-26T11:07:22;7.20;;;4.43;;
9783;SDS011;4931;44.874;-1.092;2023-06-26T11:12:41;9.95;;;6.10;;
9783;SDS011;4931;44.874;-1.092;2023-06-26T11:15:11;6.88;;;4.43;;
9783;SDS011;4931;44.874;-1.092;2023-06-26T11:17:38;10.07;;;4.47;;
9783;SDS011;4931;44.874;-1.092;2023-06-26T11:20:05;8.55;;;4.65;;
9783;SDS011;4931;44.874;-1.092;2023-06-26T11:22:35;8.95;;;4.90;;
9783;SDS011;4931;44.874;-1.092;2023-06-26T11:25:02;8.23;;;4.70;;
9783;SDS011;4931;44.874;-1.092;2023-06-26T11:27:31;7.57;;;4.00;;
9783;SDS011;4931;44.874;-1.092;2023-06-26T11:30:06;7.60;;;3.55;;
9783;SDS011;4931;44.874;-1.092;2023-06-26T11:32:33;8.95;;;4.13;;
9783;SDS011;4931;44.874;-1.092;2023-06-26T11:34:59;8.85;;;4.28;;
9783;SDS011;4931;44.874;-1.092;2023-06-26T11:37:25;8.35;;;4.30;;
9783;SDS011;4931;44.874;-1.092;2023-06-26T11:39:50;8.10;;;4.20;;
9783;SDS011;4931;44.874;-1.092;2023-06-26T11:42:16;7.93;;;3.85;;
9783;SDS011;4931;44.874;-1.092;2023-06-26T11:44:46;8.18;;;3.75;;
9783;SDS011;4931;44.874;-1.092;2023-06-26T11:47:15;6.93;;;3.17;;
9783;SDS011;4931;44.874;-1.092;2023-06-26T11:49:46;7.10;;;3.30;;
9783;SDS011;4931;44.874;-1.092;2023-06-26T11:52:12;7.07;;;3.67;;
9783;SDS011;4931;44.874;-1.092;2023-06-26T11:54:39;10.05;;;3.90;;
9783;SDS011;4931;44.874;-1.092;2023-06-26T11:57:05;6.47;;;3.00;;
9783;SDS011;4931;44.874;-1.092;2023-06-26T11:59:34;7.93;;;3.95;;
9783;SDS011;4931;44.874;-1.092;2023-06-26T12:02:08;7.38;;;4.43;;
9783;SDS011;4931;44.874;-1.092;2023-06-26T12:04:36;7.90;;;4.22;;
9783;SDS011;4931;44.874;-1.092;2023-06-26T12:07:02;7.57;;;3.75;;
9783;SDS011;4931;44.874;-1.092;2023-06-26T12:09:32;9.68;;;3.63;;
9783;SDS011;4931;44.874;-1.092;2023-06-26T12:12:00;9.52;;;3.55;;
9783;SDS011;4931;44.874;-1.092;2023-06-26T12:14:26;6.22;;;2.92;;
9783;SDS011;4931;44.874;-1.092;2023-06-26T12:16:53;6.57;;;3.28;;
9783;SDS011;4931;44.874;-1.092;2023-06-26T12:19:24;5.40;;;2.58;;
9783;SDS011;4931;44.874;-1.092;2023-06-26T12:21:51;5.15;;;2.67;;
9783;SDS011;4931;44.874;-1.092;2023-06-26T12:24:20;6.28;;;2.55;;
9783;SDS011;4931;44.874;-1.092;2023-06-26T12:26:51;5.13;;;2.97;;
9783;SDS011;4931;44.874;-1.092;2023-06-26T12:29:19;12.02;;;7.57;;
9783;SDS011;4931;44.874;-1.092;2023-06-26T12:31:50;11.90;;;8.13;;
9783;SDS011;4931;44.874;-1.092;2023-06-26T12:34:21;10.75;;;7.13;;
9783;SDS011;4931;44.874;-1.092;2023-06-26T12:36:52;9.05;;;6.28;;
9783;SDS011;4931;44.874;-1.092;2023-06-26T12:39:21;11.13;;;6.75;;
9783;SDS011;4931;44.874;-1.092;2023-06-26T12:44:20;12.25;;;6.93;;
9783;SDS011;4931;44.874;-1.092;2023-06-26T12:46:54;12.77;;;7.18;;
9783;SDS011;4931;44.874;-1.092;2023-06-26T12:49:36;12.55;;;6.80;;
9783;SDS011;4931;44.874;-1.092;2023-06-26T12:52:03;10.18;;;7.05;;
9783;SDS011;4931;44.874;-1.092;2023-06-26T12:54:30;10.20;;;6.38;;
9783;SDS011;4931;44.874;-1.092;2023-06-26T12:56:57;8.68;;;5.53;;
9783;SDS011;4931;44.874;-1.092;2023-06-26T12:59:23;9.07;;;6.15;;
9783;SDS011;4931;44.874;-1.092;2023-06-26T13:01:48;9.68;;;6.18;;
9783;SDS011;4931;44.874;-1.092;2023-06-26T13:04:14;11.00;;;7.50;;
9783;SDS011;4931;44.874;-1.092;2023-06-26T13:06:40;11.00;;;5.45;;
9783;SDS011;4931;44.874;-1.092;2023-06-26T13:09:06;8.30;;;5.25;;
9783;SDS011;4931;44.874;-1.092;2023-06-26T13:11:32;8.32;;;4.32;;
9783;SDS011;4931;44.874;-1.092;2023-06-26T13:13:58;5.25;;;3.10;;
9783;SDS011;4931;44.874;-1.092;2023-06-26T13:16:24;5.95;;;3.40;;
9783;SDS011;4931;44.874;-1.092;2023-06-26T13:18:50;7.65;;;3.50;;
9783;SDS011;4931;44.874;-1.092;2023-06-26T13:21:16;4.88;;;2.83;;
9783;SDS011;4931;44.874;-1.092;2023-06-26T13:23:43;6.05;;;2.70;;
9783;SDS011;4931;44.874;-1.092;2023-06-26T13:26:09;5.22;;;2.30;;
9783;SDS011;4931;44.874;-1.092;2023-06-26T13:28:35;4.80;;;2.40;;
9783;SDS011;4931;44.874;-1.092;2023-06-26T13:31:01;6.43;;;2.70;;
9783;SDS011;4931;44.874;-1.092;2023-06-26T13:33:27;5.80;;;2.17;;
9783;SDS011;4931;44.874;-1.092;2023-06-26T13:35:52;6.43;;;2.50;;
9783;SDS011;4931;44.874;-1.092;2023-06-26T13:38:21;6.18;;;2.25;;
9783;SDS011;4931;44.874;-1.092;2023-06-26T13:40:54;6.45;;;2.90;;
9783;SDS011;4931;44.874;-1.092;2023-06-26T13:43:22;6.28;;;2.65;;
9783;SDS011;4931;44.874;-1.092;2023-06-26T13:45:48;5.63;;;2.70;;
9783;SDS011;4931;44.874;-1.092;2023-06-26T13:48:16;4.32;;;2.30;;
9783;SDS011;4931;44.874;-1.092;2023-06-26T13:50:41;3.95;;;2.40;;
9783;SDS011;4931;44.874;-1.092;2023-06-26T13:53:07;4.93;;;2.45;;
9783;SDS011;4931;44.874;-1.092;2023-06-26T13:55:33;7.30;;;2.67;;
9783;SDS011;4931;44.874;-1.092;2023-06-26T13:58:00;6.80;;;2.47;;
9783;SDS011;4931;44.874;-1.092;2023-06-26T14:00:29;6.13;;;2.20;;
9783;SDS011;4931;44.874;-1.092;2023-06-26T14:02:54;5.43;;;1.92;;
9783;SDS011;4931;44.874;-1.092;2023-06-26T14:05:21;5.53;;;2.30;;
9783;SDS011;4931;44.874;-1.092;2023-06-26T14:07:48;7.20;;;2.08;;
9783;SDS011;4931;44.874;-1.092;2023-06-26T14:10:14;5.10;;;2.42;;
9783;SDS011;4931;44.874;-1.092;2023-06-26T14:12:40;6.57;;;2.03;;
9783;SDS011;4931;44.874;-1.092;2023-06-26T14:15:06;4.22;;;2.05;;
9783;SDS011;4931;44.874;-1.092;2023-06-26T14:17:32;4.90;;;1.70;;
9783;SDS011;4931;44.874;-1.092;2023-06-26T14:19:57;4.68;;;2.00;;
9783;SDS011;4931;44.874;-1.092;2023-06-26T14:22:23;4.15;;;1.80;;
9783;SDS011;4931;44.874;-1.092;2023-06-26T14:24:49;3.58;;;1.65;;
9783;SDS011;4931;44.874;-1.092;2023-06-26T14:27:15;4.45;;;1.83;;
9783;SDS011;4931;44.874;-1.092;2023-06-26T14:29:40;6.50;;;1.85;;
9783;SDS011;4931;44.874;-1.092;2023-06-26T14:32:06;4.32;;;1.65;;
9783;SDS011;4931;44.874;-1.092;2023-06-26T14:34:32;6.40;;;1.85;;
9783;SDS011;4931;44.874;-1.092;2023-06-26T14:36:57;5.90;;;1.60;;
9783;SDS011;4931;44.874;-1.092;2023-06-26T14:39:23;5.95;;;1.75;;
9783;SDS011;4931;44.874;-1.092;2023-06-26T14:41:48;4.88;;;1.50;;
9783;SDS011;4931;44.874;-1.092;2023-06-26T14:44:14;3.88;;;1.40;;
9783;SDS011;4931;44.874;-1.092;2023-06-26T14:46:40;4.38;;;1.70;;
9783;SDS011;4931;44.874;-1.092;2023-06-26T14:49:06;6.20;;;1.40;;
9783;SDS011;4931;44.874;-1.092;2023-06-26T14:51:32;4.32;;;1.40;;
9783;SDS011;4931;44.874;-1.092;2023-06-26T14:53:58;4.40;;;1.70;;
9783;SDS011;4931;44.874;-1.092;2023-06-26T14:56:23;4.93;;;1.98;;
9783;SDS011;4931;44.874;-1.092;2023-06-26T14:58:49;3.85;;;1.60;;
9783;SDS011;4931;44.874;-1.092;2023-06-26T15:01:17;7.65;;;2.83;;
9783;SDS011;4931;44.874;-1.092;2023-06-26T15:03:45;6.22;;;1.67;;
9783;SDS011;4931;44.874;-1.092;2023-06-26T15:06:11;5.05;;;1.60;;